Time;durP1;ratioP1;P1;durP2;ratioP2;P2;SDS_P1;SDS_P2;PMS_P1;PMS_P2;Temp;Humidity;BMP_temperature;BMP_pressure;BME280_temperature;BME280_humidity;BME280_pressure;Samples;Min_cycle;Max_cycle;Signal;HPM_P1;HPM_P2
2024/03/15 00:02:20;;;;;;;2.58;1.40;;;;;;;11.66;58.43;98889.91;4919439;29;20052;-88
2024/03/15 00:04:46;;;;;;;2.42;1.42;;;;;;;11.62;58.18;98883.25;4919353;29;20036;-87
2024/03/15 00:07:11;;;;;;;3.28;1.50;;;;;;;11.67;58.38;98899.41;4919057;29;20123;-87
2024/03/15 00:09:37;;;;;;;2.45;1.30;;;;;;;11.62;58.27;98878.84;4919394;29;20060;-87
2024/03/15 00:12:02;;;;;;;2.42;1.10;;;;;;;11.67;58.25;98891.56;4903629;29;20036;-87
2024/03/15 00:14:28;;;;;;;2.25;1.35;;;;;;;11.61;58.58;98879.81;4903584;29;20047;-87
2024/03/15 00:16:54;;;;;;;2.28;1.20;;;;;;;11.66;58.70;98879.47;4919396;29;20511;-87
2024/03/15 00:19:20;;;;;;;2.05;1.08;;;;;;;11.62;58.39;98875.41;4918372;29;20035;-87
2024/03/15 00:21:46;;;;;;;2.50;1.23;;;;;;;11.64;58.35;98865.66;4903593;29;20534;-88
2024/03/15 00:24:13;;;;;;;1.90;1.05;;;;;;;11.64;58.39;98869.13;4902823;29;20079;-87
2024/03/15 00:26:39;;;;;;;2.27;1.10;;;;;;;11.60;58.24;98870.28;4903901;29;20031;-87
2024/03/15 00:29:05;;;;;;;1.80;1.20;;;;;;;11.62;58.56;98872.78;4903199;29;20032;-86
2024/03/15 00:31:30;;;;;;;2.03;1.05;;;;;;;11.59;58.41;98868.63;4903141;29;20480;-86
2024/03/15 00:33:57;;;;;;;2.10;1.15;;;;;;;11.61;58.64;98871.13;4903696;29;20048;-86
2024/03/15 00:36:30;;;;;;;2.22;1.20;;;;;;;11.59;58.45;98866.88;4918678;29;20082;-86
2024/03/15 00:38:55;;;;;;;1.67;1.10;;;;;;;11.53;58.68;98866.50;4904385;29;20482;-86
2024/03/15 00:41:22;;;;;;;2.53;1.40;;;;;;;11.54;58.37;98862.94;4903036;29;20043;-86
2024/03/15 00:43:47;;;;;;;1.77;1.17;;;;;;;11.55;58.48;98870.66;4918244;29;20118;-87
2024/03/15 00:46:14;;;;;;;2.53;1.20;;;;;;;11.55;58.46;98868.03;4902582;29;20487;-86
2024/03/15 00:48:40;;;;;;;1.83;1.25;;;;;;;11.52;58.38;98862.22;4918965;29;20178;-85
2024/03/15 00:51:06;;;;;;;2.88;1.02;;;;;;;11.45;58.54;98850.56;4918715;29;20106;-86
2024/03/15 00:53:31;;;;;;;1.77;1.10;;;;;;;11.48;59.03;98864.25;4902781;29;20064;-86
2024/03/15 00:55:57;;;;;;;2.20;1.23;;;;;;;11.43;58.86;98855.91;4918650;29;20083;-85
2024/03/15 00:58:22;;;;;;;2.15;1.13;;;;;;;11.45;58.64;98867.13;4901884;29;20032;-85
2024/03/15 01:00:48;;;;;;;1.52;0.88;;;;;;;11.43;58.95;98862.94;4917973;29;20069;-86
2024/03/15 01:03:15;;;;;;;1.80;1.00;;;;;;;11.41;58.78;98863.88;4918556;29;20032;-85
2024/03/15 01:05:40;;;;;;;2.05;1.10;;;;;;;11.38;58.79;98858.06;4902697;29;20067;-84
2024/03/15 01:08:07;;;;;;;2.40;1.10;;;;;;;11.33;58.80;98850.59;4931394;29;20034;-82
2024/03/15 01:10:33;;;;;;;1.67;0.90;;;;;;;11.35;59.16;98860.91;4937500;29;20565;-87
2024/03/15 01:12:58;;;;;;;2.80;0.93;;;;;;;11.33;58.86;98865.44;4937811;29;20031;-88
2024/03/15 01:15:24;;;;;;;2.10;1.08;;;;;;;11.31;58.89;98859.50;4938361;29;20046;-88
2024/03/15 01:17:53;;;;;;;1.88;1.00;;;;;;;11.28;59.06;98863.19;4953663;29;20027;-87
2024/03/15 01:20:18;;;;;;;1.80;0.90;;;;;;;11.21;59.15;98855.00;4974045;29;20035;-87
2024/03/15 01:22:46;;;;;;;2.03;0.90;;;;;;;11.23;59.21;98857.50;4958484;29;20032;-88
2024/03/15 01:25:12;;;;;;;1.70;0.90;;;;;;;11.17;59.27;98855.34;4943255;29;20039;-88
2024/03/15 01:27:37;;;;;;;2.42;1.00;;;;;;;11.19;59.34;98859.47;4977415;29;20055;-88
2024/03/15 01:30:04;;;;;;;1.50;0.95;;;;;;;11.14;59.73;98850.34;4961037;29;20035;-90
2024/03/15 01:32:29;;;;;;;1.63;0.90;;;;;;;11.13;59.33;98849.53;4973454;29;20117;-88
2024/03/15 01:34:55;;;;;;;1.75;1.00;;;;;;;11.15;59.65;98855.47;4947174;29;20034;-88
2024/03/15 01:37:20;;;;;;;1.75;1.00;;;;;;;11.14;59.39;98859.00;4942609;29;20039;-89
2024/03/15 01:39:47;;;;;;;1.35;0.80;;;;;;;11.16;59.62;98856.28;4938889;29;20497;-88
2024/03/15 01:42:13;;;;;;;1.63;0.88;;;;;;;11.14;59.68;98860.81;4937565;29;20031;-90
2024/03/15 01:44:53;;;;;;;2.35;0.98;;;;;;;11.13;59.73;98856.50;4937652;29;20094;-88
2024/03/15 01:47:19;;;;;;;1.95;1.33;;;;;;;11.15;59.81;98855.47;4937209;29;20039;-90
2024/03/15 01:49:45;;;;;;;1.58;0.90;;;;;;;11.13;59.64;98852.16;4936458;29;20039;-89
2024/03/15 01:52:12;;;;;;;1.17;0.60;;;;;;;11.11;59.78;98847.97;4937350;29;20510;-90
2024/03/15 01:54:37;;;;;;;1.42;0.88;;;;;;;11.15;59.89;98847.63;4937652;29;20024;-89
2024/03/15 01:57:04;;;;;;;1.30;0.80;;;;;;;11.14;59.80;98853.78;4957394;29;20114;-89
2024/03/15 01:59:31;;;;;;;1.40;0.80;;;;;;;11.15;59.65;98858.06;4941027;29;20519;-88
2024/03/15 02:02:03;;;;;;;1.42;0.70;;;;;;;11.11;59.80;98858.41;4958266;29;20039;-88
2024/03/15 02:04:30;;;;;;;1.20;0.60;;;;;;;11.15;60.21;98859.88;4941066;29;20035;-89
2024/03/15 02:06:56;;;;;;;2.08;0.90;;;;;;;11.14;59.70;98858.19;4956109;29;20044;-89
2024/03/15 02:09:21;;;;;;;1.50;0.77;;;;;;;11.13;59.65;98859.97;4940851;29;20027;-89
2024/03/15 02:11:47;;;;;;;2.13;0.73;;;;;;;11.13;59.70;98857.38;4957097;29;20126;-89
2024/03/15 02:14:16;;;;;;;1.48;0.70;;;;;;;11.09;59.80;98855.09;4941340;29;20507;-89
2024/03/15 02:16:42;;;;;;;0.73;0.50;;;;;;;11.13;59.73;98867.81;4956923;29;20089;-89
2024/03/15 02:19:09;;;;;;;3.60;0.68;;;;;;;11.15;59.98;98870.31;4940835;29;20036;-88
2024/03/15 02:21:35;;;;;;;1.45;0.77;;;;;;;11.14;59.75;98872.06;4941202;29;20031;-89
2024/03/15 02:24:01;;;;;;;1.15;0.70;;;;;;;11.10;59.87;98865.44;4941159;29;20043;-89
2024/03/15 02:26:26;;;;;;;1.73;0.80;;;;;;;11.13;59.73;98870.44;4940977;29;20035;-89
2024/03/15 02:28:52;;;;;;;1.33;0.70;;;;;;;11.14;59.91;98874.69;4957733;29;20090;-88
2024/03/15 02:31:18;;;;;;;1.52;0.68;;;;;;;11.16;59.78;98880.63;4924441;29;20051;-88
2024/03/15 02:33:44;;;;;;;2.28;0.60;;;;;;;11.15;59.81;98878.16;4955347;29;20043;-87
2024/03/15 02:36:10;;;;;;;1.70;0.70;;;;;;;11.11;60.04;98871.47;4940232;29;20023;-87
2024/03/15 02:38:36;;;;;;;4.20;0.77;;;;;;;11.17;59.75;98876.25;4940466;29;20059;-87
2024/03/15 02:41:04;;;;;;;3.00;0.65;;;;;;;11.17;60.07;98876.25;4940232;29;20031;-88
2024/03/15 02:43:30;;;;;;;2.90;0.77;;;;;;;11.13;59.88;98872.19;4941073;29;20027;-88
2024/03/15 02:45:55;;;;;;;1.52;0.70;;;;;;;11.18;59.98;98880.50;4939684;29;20133;-87
2024/03/15 02:48:21;;;;;;;1.10;0.70;;;;;;;11.19;60.02;98879.56;4940418;29;20483;-88
2024/03/15 02:50:47;;;;;;;1.73;0.88;;;;;;;11.17;59.85;98876.25;4939893;29;20470;-89
2024/03/15 02:53:12;;;;;;;1.10;0.70;;;;;;;11.13;59.77;98869.56;4940464;29;20043;-88
2024/03/15 02:55:38;;;;;;;1.33;0.80;;;;;;;11.14;59.96;98868.63;4956218;29;20035;-88
2024/03/15 02:58:04;;;;;;;1.83;0.90;;;;;;;11.16;59.69;98878.00;4924417;29;20035;-88
2024/03/15 03:00:32;;;;;;;1.80;0.90;;;;;;;11.17;59.99;98878.84;4936977;29;20131;-88
2024/03/15 03:02:57;;;;;;;1.45;0.70;;;;;;;11.12;59.92;98868.75;4938334;29;20047;-87
2024/03/15 03:05:23;;;;;;;1.35;0.85;;;;;;;11.13;59.89;98878.28;4937072;29;20047;-87
2024/03/15 03:07:49;;;;;;;1.80;0.90;;;;;;;11.16;59.68;98874.56;4936856;29;20032;-88
2024/03/15 03:10:15;;;;;;;1.25;0.77;;;;;;;11.14;59.85;98874.69;4938473;29;20027;-89
2024/03/15 03:12:41;;;;;;;1.48;0.90;;;;;;;11.06;60.07;98856.16;4936860;29;20138;-89
2024/03/15 03:15:07;;;;;;;4.80;1.15;;;;;;;11.10;59.94;98869.81;4938102;29;20035;-88
2024/03/15 03:17:33;;;;;;;1.17;0.85;;;;;;;11.13;59.60;98869.56;4936513;29;20034;-88
2024/03/15 03:19:59;;;;;;;1.40;0.80;;;;;;;11.14;59.77;98884.31;4952173;29;20051;-90
2024/03/15 03:22:25;;;;;;;1.52;1.00;;;;;;;11.13;59.70;98882.63;4937636;29;20037;-88
2024/03/15 03:24:50;;;;;;;2.00;1.30;;;;;;;11.11;59.93;98874.09;4956669;29;20047;-88
2024/03/15 03:27:16;;;;;;;3.03;1.30;;;;;;;11.09;59.87;98878.63;4954188;29;20047;-88
2024/03/15 03:29:41;;;;;;;2.30;1.30;;;;;;;11.13;59.87;98882.63;4936925;29;20479;-88
2024/03/15 03:32:07;;;;;;;5.28;1.75;;;;;;;11.11;60.00;98879.31;4922224;29;20178;-89
2024/03/15 03:34:33;;;;;;;1.88;1.42;;;;;;;11.10;60.09;98880.25;4964391;29;20067;-87
2024/03/15 03:36:58;;;;;;;2.13;1.60;;;;;;;11.11;59.90;98884.53;4938502;29;20044;-87
2024/03/15 03:39:25;;;;;;;2.28;1.80;;;;;;;11.05;60.11;98875.38;4937078;29;20035;-89
2024/03/15 03:41:51;;;;;;;3.28;2.03;;;;;;;11.06;60.18;98878.84;4951607;29;20475;-88
2024/03/15 03:44:17;;;;;;;2.45;1.80;;;;;;;11.10;60.09;98888.09;4934524;29;20043;-89
2024/03/15 03:46:43;;;;;;;3.20;2.20;;;;;;;11.09;59.87;98889.06;4935456;29;20500;-88
2024/03/15 03:49:08;;;;;;;2.83;1.92;;;;;;;11.09;60.06;98891.69;4936147;29;20456;-89
2024/03/15 03:51:34;;;;;;;2.60;1.80;;;;;;;11.06;59.91;98884.91;4935551;29;20063;-90
2024/03/15 03:54:00;;;;;;;3.15;2.10;;;;;;;11.07;60.14;98893.56;4936128;29;20036;-88
2024/03/15 03:56:29;;;;;;;2.83;1.83;;;;;;;11.06;60.15;98887.50;4936950;29;20074;-89
2024/03/15 03:58:54;;;;;;;3.38;1.75;;;;;;;11.07;60.19;98890.94;4937020;29;20023;-89
2024/03/15 04:01:20;;;;;;;3.00;1.90;;;;;;;11.02;60.22;98880.84;4951072;29;20087;-89
2024/03/15 04:03:48;;;;;;;3.22;2.10;;;;;;;11.06;60.09;98894.53;4935643;29;20035;-93
2024/03/15 04:06:14;;;;;;;;;;;;;;;11.08;59.97;98892.63;4936575;29;20032;-91
2024/03/15 04:08:40;;;;;;;2.17;1.60;;;;;;;11.02;60.10;98892.13;4937223;29;19922;-91
2024/03/15 04:11:05;;;;;;;3.15;1.90;;;;;;;11.02;60.10;98888.69;4951422;29;20535;-88
2024/03/15 04:13:31;;;;;;;3.20;1.90;;;;;;;11.01;59.93;98889.66;4936689;29;20046;-89
2024/03/15 04:15:56;;;;;;;3.25;2.00;;;;;;;11.01;60.05;98897.47;4936037;29;20491;-89
2024/03/15 04:18:22;;;;;;;2.70;1.80;;;;;;;10.96;59.99;98892.59;4934515;29;20074;-90
2024/03/15 04:20:48;;;;;;;3.05;2.08;;;;;;;10.94;60.09;98889.28;4934712;29;20139;-89
2024/03/15 04:23:20;;;;;;;4.38;2.35;;;;;;;10.97;60.17;98898.66;4935381;29;20067;-91
2024/03/15 04:25:47;;;;;;;5.10;2.50;;;;;;;10.96;60.10;98897.81;4935931;29;20127;-89
2024/03/15 04:28:13;;;;;;;5.35;2.92;;;;;;;10.96;60.09;98903.06;4919391;29;20047;-88
2024/03/15 04:30:40;;;;;;;6.05;3.33;;;;;;;10.89;60.21;98896.59;4935668;29;20434;-90
2024/03/15 04:33:06;;;;;;;8.07;3.90;;;;;;;10.93;60.07;98899.84;4937638;29;20039;-90
2024/03/15 04:35:31;;;;;;;5.03;3.75;;;;;;;10.97;59.85;98901.25;4940328;29;20036;-89
2024/03/15 04:37:57;;;;;;;5.85;3.58;;;;;;;10.99;60.01;98899.34;4928440;29;20076;-90
2024/03/15 04:40:25;;;;;;;5.13;3.67;;;;;;;11.02;59.90;98905.19;4939008;29;20090;-90
2024/03/15 04:42:51;;;;;;;6.10;3.80;;;;;;;11.02;59.88;98904.34;4941819;29;20036;-90
2024/03/15 04:45:17;;;;;;;7.82;4.25;;;;;;;11.04;59.68;98903.28;4907915;29;20044;-93
2024/03/15 04:47:43;;;;;;;7.68;4.25;;;;;;;11.07;59.62;98915.31;4908465;29;20058;-92
2024/03/15 04:50:09;;;;;;;7.18;3.83;;;;;;;11.09;59.68;98912.59;4901741;29;20456;-90
2024/03/15 04:52:37;;;;;;;6.80;4.50;;;;;;;11.11;59.36;98913.28;4906820;29;20032;-83
2024/03/15 04:55:03;;;;;;;6.95;4.78;;;;;;;11.08;59.51;98906.50;4900910;29;20032;-84
2024/03/15 04:57:29;;;;;;;4.43;1.95;;;;;;;11.32;71.34;98914.28;4915310;29;20444;-78
2024/03/15 04:59:55;;;;;;;4.47;2.85;;;;;;;11.62;75.78;98917.25;4899165;29;20150;-84
2024/03/15 05:02:21;;;;;;;10.00;2.70;;;;;;;11.79;75.49;98915.94;4915563;29;20068;-76
2024/03/15 05:04:46;;;;;;;2.85;2.00;;;;;;;11.98;77.35;98931.88;4900040;29;20032;-80
2024/03/15 05:07:12;;;;;;;3.67;2.30;;;;;;;11.98;73.80;98926.63;4900003;29;20510;-76
2024/03/15 05:09:38;;;;;;;10.35;2.70;;;;;;;12.00;73.19;98926.50;4934199;29;20463;-77
2024/03/15 05:12:04;;;;;;;4.60;2.53;;;;;;;11.97;71.41;98918.91;4918578;29;20032;-77
2024/03/15 05:14:30;;;;;;;6.07;2.60;;;;;;;11.97;70.32;98918.91;4918406;29;20043;-76
2024/03/15 05:16:56;;;;;;;6.32;2.53;;;;;;;11.99;70.69;98925.69;4918779;29;20199;-76
2024/03/15 05:19:26;;;;;;;4.75;2.58;;;;;;;12.03;69.74;98936.72;4918198;29;20098;-75
2024/03/15 05:21:51;;;;;;;7.72;2.85;;;;;;;12.05;68.98;98938.28;4935412;29;20135;-76
2024/03/15 05:24:17;;;;;;;8.77;3.17;;;;;;;12.04;68.43;98926.16;4918081;29;20035;-75
2024/03/15 05:26:42;;;;;;;5.90;2.72;;;;;;;12.14;70.32;98936.72;4917925;29;20035;-75
2024/03/15 05:29:08;;;;;;;6.38;2.40;;;;;;;12.38;76.38;98933.09;4938035;29;20471;-76
2024/03/15 05:31:36;;;;;;;17.50;2.10;;;;;;;12.64;78.66;98937.03;4934483;29;20035;-75
2024/03/15 05:34:07;;;;;;;3.67;1.90;;;;;;;12.68;75.84;98937.59;4934155;29;20111;-78
2024/03/15 05:36:36;;;;;;;3.17;2.03;;;;;;;12.69;73.25;98930.59;4919146;29;20036;-78
2024/03/15 05:39:01;;;;;;;8.88;2.38;;;;;;;12.69;71.90;98935.84;4934983;29;20035;-80
2024/03/15 05:41:27;;;;;;;7.88;2.50;;;;;;;12.61;71.07;98926.81;4918468;29;20039;-80
2024/03/15 05:43:53;;;;;;;6.78;2.17;;;;;;;12.66;70.47;98942.97;4916961;29;20122;-82
2024/03/15 05:46:19;;;;;;;6.97;2.70;;;;;;;12.64;69.57;98936.22;4902070;29;20046;-82
2024/03/15 05:48:44;;;;;;;5.28;2.30;;;;;;;12.67;69.25;98951.69;4917666;29;20023;-81
2024/03/15 05:51:10;;;;;;;4.50;2.55;;;;;;;12.65;69.06;98950.94;4933311;29;20515;-82
2024/03/15 05:53:35;;;;;;;4.13;2.40;;;;;;;12.63;68.98;98947.63;4933499;29;20127;-79
2024/03/15 05:56:01;;;;;;;6.63;2.65;;;;;;;12.62;68.92;98952.06;4917590;29;20071;-79
2024/03/15 05:58:27;;;;;;;7.85;2.25;;;;;;;12.61;68.60;98950.38;4933333;29;20047;-80
2024/03/15 06:00:52;;;;;;;4.95;2.42;;;;;;;12.65;68.38;98953.56;4917783;29;20508;-80
2024/03/15 06:03:18;;;;;;;6.93;2.47;;;;;;;12.67;68.02;98954.31;4918050;29;20031;-80
2024/03/15 06:05:44;;;;;;;3.72;2.38;;;;;;;12.70;67.97;98947.97;4916805;29;20051;-79
2024/03/15 06:08:10;;;;;;;3.80;2.20;;;;;;;12.72;67.61;98946.91;4919453;29;20038;-88
2024/03/15 06:10:36;;;;;;;4.60;2.30;;;;;;;12.81;67.39;98961.84;4918911;29;20123;-82
2024/03/15 06:13:02;;;;;;;4.32;2.40;;;;;;;12.87;66.98;98962.31;4917960;29;20514;-82
2024/03/15 06:15:27;;;;;;;3.47;2.17;;;;;;;12.88;66.84;98956.13;4917932;29;20032;-79
2024/03/15 06:17:53;;;;;;;5.75;2.42;;;;;;;12.91;66.47;98951.44;4917556;29;20066;-78
2024/03/15 06:20:18;;;;;;;3.53;1.83;;;;;;;13.02;66.44;98966.28;4932117;29;20107;-78
2024/03/15 06:22:44;;;;;;;3.17;2.00;;;;;;;13.01;66.00;98954.97;4915722;29;20126;-77
2024/03/15 06:25:11;;;;;;;3.80;2.40;;;;;;;13.09;65.66;98970.03;4916143;29;20472;-78
2024/03/15 06:27:39;;;;;;;3.67;2.20;;;;;;;13.13;65.47;98968.84;4916394;29;20126;-80
2024/03/15 06:30:08;;;;;;;5.18;2.45;;;;;;;13.15;65.02;98953.00;4916559;29;20032;-78
2024/03/15 06:32:38;;;;;;;3.00;1.80;;;;;;;13.23;64.79;98961.03;4916241;29;20031;-78
2024/03/15 06:35:18;;;;;;;5.40;2.15;;;;;;;13.29;64.71;98964.94;4916749;29;20059;-80
2024/03/15 06:37:48;;;;;;;3.50;2.08;;;;;;;13.32;64.35;98965.50;4933671;29;20111;-79
2024/03/15 06:40:20;;;;;;;2.83;1.70;;;;;;;13.41;63.77;98969.19;4918150;29;20087;-79
2024/03/15 06:45:52;;;;;;;2.95;1.98;;;;;;;13.60;62.98;98973.72;4923562;29;20106;-79
2024/03/15 06:48:18;;;;;;;2.80;1.73;;;;;;;13.70;62.78;98969.34;4927244;29;20466;-79
2024/03/15 06:52:31;;;;;;;5.75;2.22;;;;;;;13.77;62.24;98974.06;4921308;29;20035;-78
2024/03/15 06:53:35;;;;;;;2.60;1.67;;;;;;;13.82;61.84;98967.47;4924538;29;20055;-79
2024/03/15 06:56:02;;;;;;;2.78;2.00;;;;;;;13.96;61.69;98968.06;4920994;29;20388;-79
2024/03/15 06:58:28;;;;;;;3.30;1.88;;;;;;;14.04;61.07;98969.06;4921174;29;20131;-78
2024/03/15 07:00:53;;;;;;;3.25;1.95;;;;;;;14.17;60.43;98971.44;4920550;29;20130;-79
2024/03/15 07:03:19;;;;;;;3.45;1.80;;;;;;;14.28;59.91;98978.38;4920827;29;20056;-79
2024/03/15 07:05:44;;;;;;;3.55;2.15;;;;;;;14.47;59.51;98988.09;4920546;29;20118;-77
2024/03/15 07:08:10;;;;;;;4.90;1.98;;;;;;;14.57;58.53;98978.41;4921008;29;20054;-78
2024/03/15 07:10:35;;;;;;;3.03;2.08;;;;;;;14.70;58.53;98979.97;4920674;29;20466;-78
2024/03/15 07:13:04;;;;;;;4.50;2.03;;;;;;;14.77;58.01;98967.94;4920871;29;20035;-79
2024/03/15 07:15:30;;;;;;;;;;;;;;;14.93;57.51;98973.47;4921143;29;20497;-77
2024/03/15 07:17:55;;;;;;;4.65;2.45;;;;;;;14.91;57.26;98964.91;4936752;29;20401;-78
2024/03/15 07:20:21;;;;;;;4.40;2.22;;;;;;;15.07;57.12;98980.13;4920355;29;20028;-80
2024/03/15 07:22:47;;;;;;;3.38;2.47;;;;;;;15.29;56.75;98968.47;4936166;29;20032;-79
2024/03/15 07:25:14;;;;;;;5.03;2.80;;;;;;;15.43;56.10;98966.34;4920479;29;20028;-78
2024/03/15 07:27:41;;;;;;;5.47;2.87;;;;;;;15.67;55.46;98968.47;4920659;29;20035;-79
2024/03/15 07:30:11;;;;;;;4.85;3.08;;;;;;;15.87;54.77;98979.81;4920847;29;20039;-77
2024/03/15 07:32:37;;;;;;;5.78;3.58;;;;;;;16.14;54.17;98972.91;4920979;29;20388;-78
2024/03/15 07:35:04;;;;;;;5.28;3.60;;;;;;;16.33;53.84;98974.59;4920265;29;20031;-79
2024/03/15 07:37:30;;;;;;;8.15;3.85;;;;;;;16.52;53.00;98971.81;4920544;29;20392;-77
2024/03/15 07:39:56;;;;;;;6.57;3.53;;;;;;;16.76;52.54;98978.31;4920163;29;20771;-80
2024/03/15 07:42:21;;;;;;;5.68;3.60;;;;;;;16.97;51.55;98968.31;4920318;29;20075;-79
2024/03/15 07:44:50;;;;;;;9.75;3.63;;;;;;;17.13;51.31;98964.97;4920075;29;20095;-78
2024/03/15 07:47:17;;;;;;;7.82;3.70;;;;;;;17.38;50.32;98965.16;4921051;29;20036;-79
2024/03/15 07:49:43;;;;;;;8.55;4.03;;;;;;;17.69;49.30;98970.75;4920807;29;20032;-79
2024/03/15 07:52:09;;;;;;;6.82;3.35;;;;;;;18.18;48.37;98967.53;4919443;29;20032;-79
2024/03/15 07:54:34;;;;;;;7.72;4.13;;;;;;;18.59;47.37;98967.63;4919553;29;20035;-78
2024/03/15 07:57:00;;;;;;;7.45;3.63;;;;;;;18.79;46.85;98957.56;4919632;29;20040;-78
2024/03/15 07:59:28;;;;;;;7.25;3.67;;;;;;;19.50;45.50;98954.41;4920491;29;20040;-79
2024/03/15 08:01:55;;;;;;;7.90;3.22;;;;;;;20.12;44.19;98966.16;4923963;29;20117;-80
2024/03/15 08:04:20;;;;;;;6.35;3.20;;;;;;;20.40;43.49;98962.00;4923496;29;20043;-77
2024/03/15 08:06:49;;;;;;;7.07;3.35;;;;;;;21.29;41.91;98961.50;4938517;29;20046;-78
2024/03/15 08:09:15;;;;;;;7.30;3.78;;;;;;;22.27;40.10;98955.28;4923360;29;20063;-79
2024/03/15 08:11:42;;;;;;;6.93;3.15;;;;;;;22.72;39.26;98951.50;4922843;29;20459;-78
2024/03/15 08:14:08;;;;;;;5.35;2.70;;;;;;;23.72;37.47;98956.75;4923302;29;20487;-78
2024/03/15 08:16:33;;;;;;;5.53;3.00;;;;;;;24.24;36.66;98953.72;4923268;29;20086;-79
2024/03/15 08:19:08;;;;;;;5.15;2.58;;;;;;;24.04;36.54;98943.81;4922891;29;20031;-78
2024/03/15 08:21:36;;;;;;;4.53;2.67;;;;;;;23.92;36.52;98962.19;4923485;29;20110;-79
2024/03/15 08:24:04;;;;;;;4.53;2.53;;;;;;;23.77;36.76;98950.84;4923176;29;20039;-78
2024/03/15 08:26:33;;;;;;;4.38;2.88;;;;;;;23.65;36.71;98962.03;4923248;29;20032;-77
2024/03/15 08:29:00;;;;;;;4.38;2.70;;;;;;;23.43;36.62;98945.28;4922214;29;20082;-78
2024/03/15 08:31:25;;;;;;;3.88;2.45;;;;;;;23.21;37.02;98955.19;4922650;29;20511;-78
2024/03/15 08:33:51;;;;;;;4.50;2.50;;;;;;;23.08;36.73;98945.25;4922663;29;20141;-79
2024/03/15 08:36:16;;;;;;;4.40;2.90;;;;;;;23.01;36.91;98948.84;4921993;29;20162;-78
2024/03/15 08:38:42;;;;;;;4.00;2.30;;;;;;;23.04;36.84;98953.78;4922085;29;20066;-76
2024/03/15 08:41:07;;;;;;;3.92;2.47;;;;;;;22.76;37.39;98954.59;4906250;29;20081;-77
2024/03/15 08:43:34;;;;;;;4.70;2.53;;;;;;;22.55;37.66;98950.91;4922272;29;20046;-77
2024/03/15 08:45:59;;;;;;;4.20;2.58;;;;;;;22.49;37.58;98950.84;4922582;29;20508;-78
2024/03/15 08:48:30;;;;;;;3.63;2.60;;;;;;;22.37;37.88;98950.50;4921889;29;20035;-78
2024/03/15 08:50:56;;;;;;;7.85;3.03;;;;;;;22.27;37.71;98940.16;4923402;29;20031;-78
2024/03/15 08:53:24;;;;;;;4.35;2.67;;;;;;;22.16;38.03;98944.09;4906480;29;20031;-78
2024/03/15 08:55:50;;;;;;;4.07;2.50;;;;;;;21.91;38.55;98940.13;4922565;29;20027;-78
2024/03/15 08:58:16;;;;;;;5.38;2.85;;;;;;;21.88;38.17;98933.34;4906627;29;20086;-78
2024/03/15 09:00:42;;;;;;;4.65;2.80;;;;;;;22.14;38.09;98932.00;4905939;29;20110;-78
2024/03/15 09:03:09;;;;;;;6.00;2.60;;;;;;;22.69;37.36;98932.41;4906390;29;20047;-78
2024/03/15 09:05:37;;;;;;;4.97;2.50;;;;;;;22.85;37.32;98929.50;4921547;29;20034;-78
2024/03/15 09:08:09;;;;;;;4.18;2.58;;;;;;;23.33;36.84;98925.38;4922359;29;20035;-79
2024/03/15 09:10:35;;;;;;;4.80;2.30;;;;;;;24.41;35.02;98925.63;4907286;29;20062;-79
2024/03/15 09:13:00;;;;;;;3.88;1.92;;;;;;;24.76;34.08;98922.84;4906020;29;20034;-77
2024/03/15 09:15:26;;;;;;;5.13;2.17;;;;;;;25.50;33.44;98922.81;4921495;29;20039;-78
2024/03/15 09:17:52;;;;;;;4.40;1.80;;;;;;;26.05;32.55;98920.59;4937062;29;20043;-79
2024/03/15 09:20:19;;;;;;;4.15;2.40;;;;;;;26.31;32.61;98916.97;4921712;29;20031;-77
2024/03/15 09:22:48;;;;;;;2.75;1.90;;;;;;;26.52;31.66;98914.97;4921979;29;20027;-78
2024/03/15 09:25:23;;;;;;;4.07;1.75;;;;;;;26.44;31.63;98917.88;4921723;29;20039;-78
2024/03/15 09:27:52;;;;;;;2.65;1.75;;;;;;;26.04;31.75;98921.59;4923716;29;20499;-78
2024/03/15 09:30:29;;;;;;;2.53;1.60;;;;;;;25.70;31.84;98922.78;4937204;29;20067;-78
2024/03/15 09:32:56;;;;;;;4.10;2.17;;;;;;;26.21;31.59;98923.81;4923765;29;20023;-78
2024/03/15 09:35:22;;;;;;;3.40;1.80;;;;;;;26.53;31.38;98913.91;4922038;29;20039;-77
2024/03/15 09:37:50;;;;;;;3.72;1.63;;;;;;;26.84;30.80;98906.94;4921431;29;20035;-77
2024/03/15 09:40:27;;;;;;;2.30;1.50;;;;;;;27.03;30.72;98900.56;4922299;29;20039;-78
2024/03/15 09:42:53;;;;;;;2.45;1.50;;;;;;;26.28;31.41;98912.03;4923152;29;20040;-78
2024/03/15 09:45:21;;;;;;;2.17;1.60;;;;;;;25.99;31.48;98908.06;4905793;29;20131;-79
2024/03/15 09:47:50;;;;;;;3.13;1.80;;;;;;;26.50;31.10;98907.16;4921116;29;20102;-78
2024/03/15 09:50:16;;;;;;;2.80;1.60;;;;;;;26.63;31.23;98903.56;4921266;29;20458;-77
2024/03/15 09:52:43;;;;;;;3.03;1.55;;;;;;;26.81;30.58;98902.00;4921506;29;20042;-78
2024/03/15 09:55:13;;;;;;;2.40;1.65;;;;;;;26.88;30.06;98890.22;4921017;29;20035;-78
2024/03/15 09:57:42;;;;;;;2.08;1.58;;;;;;;26.92;30.35;98897.81;4921620;29;20114;-78
2024/03/15 10:00:11;;;;;;;2.17;1.70;;;;;;;26.97;30.22;98893.41;4902203;29;20055;-78
2024/03/15 10:02:36;;;;;;;2.35;1.40;;;;;;;26.98;30.09;98889.72;4918666;29;20070;-77
2024/03/15 10:05:05;;;;;;;2.58;1.52;;;;;;;26.95;30.17;98878.63;4917739;29;20495;-78
2024/03/15 10:07:31;;;;;;;2.40;1.52;;;;;;;27.12;29.67;98887.72;4918439;29;20071;-77
2024/03/15 10:09:57;;;;;;;1.95;1.38;;;;;;;27.11;29.78;98877.22;4918121;29;20399;-78
2024/03/15 10:12:22;;;;;;;2.67;1.58;;;;;;;27.20;29.94;98879.41;4933174;29;20031;-78
2024/03/15 10:14:48;;;;;;;2.20;1.48;;;;;;;27.35;29.58;98888.97;4917542;29;20054;-78
2024/03/15 10:17:13;;;;;;;3.80;1.80;;;;;;;27.45;29.70;98883.88;4920465;29;20039;-78
2024/03/15 10:19:39;;;;;;;2.08;1.20;;;;;;;27.51;29.79;98868.78;4921547;29;20131;-77
2024/03/15 10:22:07;;;;;;;2.28;1.40;;;;;;;27.53;29.55;98874.72;4937440;29;20031;-80
2024/03/15 10:24:33;;;;;;;2.45;1.30;;;;;;;27.51;29.75;98872.28;4921918;29;20054;-78
2024/03/15 10:26:58;;;;;;;2.05;1.45;;;;;;;27.48;29.48;98861.19;4921749;29;20547;-79
2024/03/15 10:29:24;;;;;;;2.15;1.33;;;;;;;27.23;29.69;98854.84;4921224;29;20043;-76
2024/03/15 10:31:49;;;;;;;2.13;1.40;;;;;;;26.93;30.25;98859.25;4920746;29;20116;-78
2024/03/15 10:34:15;;;;;;;2.03;1.45;;;;;;;26.86;29.95;98857.47;4920834;29;20094;-79
2024/03/15 10:36:41;;;;;;;3.10;1.58;;;;;;;26.82;30.11;98858.13;4936797;29;20051;-79
2024/03/15 10:39:09;;;;;;;2.22;1.38;;;;;;;26.72;29.84;98858.63;4921310;29;20122;-78
2024/03/15 10:41:35;;;;;;;1.52;1.10;;;;;;;26.53;30.50;98863.06;4922162;29;20495;-79
2024/03/15 10:44:00;;;;;;;1.98;1.23;;;;;;;26.45;30.45;98857.97;4921276;29;20035;-77
2024/03/15 10:46:26;;;;;;;2.05;1.38;;;;;;;26.32;30.63;98850.88;4921296;29;20518;-78
2024/03/15 10:48:52;;;;;;;1.92;1.10;;;;;;;26.14;30.45;98856.94;4922017;29;20024;-77
2024/03/15 10:51:18;;;;;;;1.80;1.10;;;;;;;25.97;30.79;98859.31;4925143;29;20554;-77
2024/03/15 10:53:44;;;;;;;2.53;1.30;;;;;;;25.86;30.78;98843.94;4940739;29;20123;-78
2024/03/15 10:56:09;;;;;;;8.25;1.40;;;;;;;25.81;30.83;98842.69;4923341;29;20066;-77
2024/03/15 10:58:35;;;;;;;1.75;1.38;;;;;;;25.72;31.25;98852.00;4921113;29;20386;-77
2024/03/15 11:01:01;;;;;;;1.73;1.10;;;;;;;25.64;30.99;98846.91;4936876;29;20514;-77
2024/03/15 11:03:30;;;;;;;1.90;1.10;;;;;;;25.51;31.39;98842.44;4921147;29;20119;-78
2024/03/15 11:05:55;;;;;;;2.88;1.13;;;;;;;25.26;31.40;98842.28;4921410;29;20035;-77
2024/03/15 11:08:21;;;;;;;2.55;1.20;;;;;;;24.88;31.84;98838.44;4935883;29;20044;-77
2024/03/15 11:10:59;;;;;;;1.95;1.27;;;;;;;24.72;32.18;98838.88;4920923;29;20432;-78
2024/03/15 11:13:25;;;;;;;2.10;1.20;;;;;;;24.16;32.75;98840.03;4921673;29;20035;-77
2024/03/15 11:15:51;;;;;;;3.55;1.50;;;;;;;23.74;33.46;98832.13;4920821;29;20035;-77
2024/03/15 11:18:19;;;;;;;1.60;1.10;;;;;;;23.23;34.28;98829.81;4920880;29;20040;-78
2024/03/15 11:20:57;;;;;;;2.85;1.50;;;;;;;22.85;34.73;98838.16;4921332;29;20091;-77
2024/03/15 11:23:26;;;;;;;2.08;1.42;;;;;;;22.53;35.47;98825.25;4936949;29;20067;-75
2024/03/15 11:25:54;;;;;;;2.17;1.40;;;;;;;22.29;35.79;98830.94;4920720;29;20031;-78
2024/03/15 11:28:20;;;;;;;2.38;1.50;;;;;;;22.07;36.10;98827.44;4936093;29;20028;-77
2024/03/15 11:30:45;;;;;;;2.95;1.40;;;;;;;21.84;36.60;98831.91;4920612;29;20035;-75
2024/03/15 11:33:11;;;;;;;2.20;1.42;;;;;;;21.59;37.12;98820.00;4920531;29;20177;-77
2024/03/15 11:35:40;;;;;;;1.67;1.25;;;;;;;21.51;37.25;98820.91;4920976;29;20055;-78